Time;durP1;ratioP1;P1;durP2;ratioP2;P2;SDS_P1;SDS_P2;PMS_P1;PMS_P2;Temp;Humidity;BMP_temperature;BMP_pressure;BME280_temperature;BME280_humidity;BME280_pressure;Samples;Min_cycle;Max_cycle;Signal;HPM_P1;HPM_P2
2023/03/26 00:01:12;;;;;;;24.90;7.57;;;;;;;7.77;100.00;100724.13;5070060;28;20458;-35
2023/03/26 00:03:39;;;;;;;22.13;6.13;;;;;;;7.75;100.00;100716.25;5070533;28;20024;-35
2023/03/26 00:06:11;;;;;;;21.27;5.78;;;;;;;7.72;100.00;100712.13;5069939;28;20029;-35
2023/03/26 00:08:38;;;;;;;25.35;6.22;;;;;;;7.70;100.00;100713.38;5069885;28;20040;-35
2023/03/26 00:11:06;;;;;;;22.13;5.60;;;;;;;7.69;100.00;100719.81;5069633;28;20024;-35
2023/03/26 00:13:32;;;;;;;23.15;6.18;;;;;;;7.65;100.00;100716.72;5058092;28;20373;-35
2023/03/26 00:15:59;;;;;;;28.90;7.30;;;;;;;7.62;100.00;100716.34;5056581;28;20021;-35
2023/03/26 00:18:29;;;;;;;28.20;6.38;;;;;;;7.60;100.00;100721.09;5056206;28;20029;-35
2023/03/26 00:20:59;;;;;;;23.75;5.88;;;;;;;7.59;100.00;100714.88;5056423;28;20113;-35
2023/03/26 00:23:26;;;;;;;29.80;6.50;;;;;;;7.54;100.00;100711.19;5055844;28;20472;-35
2023/03/26 00:25:52;;;;;;;29.02;6.95;;;;;;;7.51;100.00;100723.19;5055844;28;20065;-35
2023/03/26 00:28:20;;;;;;;;;;;;;;;7.54;100.00;100725.47;5056762;28;20445;-35
2023/03/26 00:30:47;;;;;;;22.88;5.32;;;;;;;7.40;100.00;100713.94;5055748;28;20418;-36
2023/03/26 00:33:16;;;;;;;21.45;4.72;;;;;;;7.38;100.00;100710.66;5055981;28;20087;-36
2023/03/26 00:35:45;;;;;;;27.17;6.40;;;;;;;7.33;100.00;100707.75;5056820;28;20025;-36
2023/03/26 00:38:11;;;;;;;22.63;6.13;;;;;;;7.27;100.00;100702.38;5055867;28;20082;-36
2023/03/26 00:40:36;;;;;;;25.20;6.13;;;;;;;7.14;100.00;100681.78;5055539;28;20025;-36
2023/03/26 00:43:08;;;;;;;21.60;5.90;;;;;;;7.18;100.00;100685.69;5056051;28;20032;-36
2023/03/26 00:45:34;;;;;;;21.92;6.03;;;;;;;7.16;100.00;100683.19;5055764;28;20382;-36
2023/03/26 00:47:59;;;;;;;20.50;5.15;;;;;;;7.08;100.00;100685.31;5055422;28;20033;-36
2023/03/26 00:50:25;;;;;;;28.10;5.93;;;;;;;7.07;100.00;100676.38;5055761;28;20032;-36
2023/03/26 00:52:50;;;;;;;22.67;5.20;;;;;;;7.07;100.00;100680.94;5056217;28;20029;-36
2023/03/26 00:55:16;;;;;;;22.65;4.97;;;;;;;7.09;100.00;100684.28;5055593;28;20029;-36
2023/03/26 00:57:44;;;;;;;23.40;6.03;;;;;;;7.04;100.00;100684.06;5055226;28;20029;-36
2023/03/26 01:00:14;;;;;;;20.58;4.78;;;;;;;7.04;100.00;100681.38;5055446;28;20032;-36
2023/03/26 01:02:39;;;;;;;20.33;5.13;;;;;;;7.05;100.00;100685.72;5055679;28;20048;-36
2023/03/26 01:05:41;;;;;;;29.50;6.47;;;;;;;7.11;100.00;100671.44;5055981;28;20040;-36
2023/03/26 01:08:16;;;;;;;22.65;5.15;;;;;;;7.08;100.00;100671.88;5055885;28;20029;-36
2023/03/26 01:10:43;;;;;;;19.02;5.25;;;;;;;7.08;100.00;100666.50;5055868;28;20040;-36
2023/03/26 01:13:09;;;;;;;29.35;6.25;;;;;;;7.05;100.00;100653.47;5055249;28;20115;-36
2023/03/26 01:15:37;;;;;;;;;;;;;;;7.18;100.00;100656.94;5055920;28;20032;-36
2023/03/26 01:18:04;;;;;;;18.17;4.43;;;;;;;7.16;100.00;100653.59;5055059;28;19913;-36
2023/03/26 01:20:33;;;;;;;20.95;4.90;;;;;;;7.13;100.00;100645.16;5055296;28;20035;-36
2023/03/26 01:23:04;;;;;;;21.52;4.80;;;;;;;7.11;100.00;100645.34;5054659;28;20504;-36
2023/03/26 01:25:36;;;;;;;19.23;4.80;;;;;;;7.12;100.00;100641.63;5054051;28;20025;-36
2023/03/26 01:28:04;;;;;;;23.60;4.32;;;;;;;7.10;100.00;100637.50;5055775;28;20025;-36
2023/03/26 01:30:41;;;;;;;15.50;4.03;;;;;;;7.02;100.00;100630.50;5054896;28;20036;-36
2023/03/26 01:33:13;;;;;;;20.60;4.95;;;;;;;6.95;100.00;100624.34;5055423;28;20033;-36
2023/03/26 01:35:51;;;;;;;18.13;4.18;;;;;;;6.96;100.00;100610.66;5054784;28;20041;-36
2023/03/26 01:38:45;;;;;;;22.40;5.57;;;;;;;6.95;100.00;100617.09;5055312;28;20044;-36
2023/03/26 01:41:14;;;;;;;20.42;5.22;;;;;;;6.86;100.00;100609.47;5054300;28;20025;-36
2023/03/26 01:43:58;;;;;;;13.90;4.25;;;;;;;6.85;100.00;100597.91;5054643;28;20029;-36
2023/03/26 01:46:25;;;;;;;17.25;4.40;;;;;;;6.82;100.00;100600.19;5055424;28;20048;-36
2023/03/26 01:48:51;;;;;;;22.33;5.45;;;;;;;6.75;100.00;100586.78;5054813;28;20465;-36
2023/03/26 01:51:34;;;;;;;22.70;5.78;;;;;;;6.76;100.00;100596.47;5055126;28;20044;-36
2023/03/26 01:54:06;;;;;;;21.13;4.43;;;;;;;6.71;100.00;100599.81;5054701;28;20033;-36
2023/03/26 01:56:53;;;;;;;20.17;4.20;;;;;;;6.71;100.00;100590.91;5054994;28;20029;-36
2023/03/26 01:59:38;;;;;;;16.50;3.95;;;;;;;6.70;100.00;100600.03;5054303;28;20025;-36
2023/03/26 02:02:10;;;;;;;23.42;5.13;;;;;;;6.64;100.00;100595.50;5055058;28;20057;-36
2023/03/26 02:05:24;;;;;;;24.13;4.85;;;;;;;6.65;100.00;100586.41;5055092;28;20086;-36
2023/03/26 02:08:10;;;;;;;17.08;3.97;;;;;;;6.62;100.00;100584.94;5032234;28;20037;-36
2023/03/26 02:10:41;;;;;;;19.80;4.60;;;;;;;6.61;100.00;100577.94;5054462;28;20440;-36
2023/03/26 02:13:06;;;;;;;18.08;4.10;;;;;;;6.44;100.00;100553.41;5054648;28;20037;-36
2023/03/26 02:15:32;;;;;;;20.98;4.80;;;;;;;6.57;100.00;100578.56;5054378;28;20033;-36
2023/03/26 02:17:58;;;;;;;18.38;4.63;;;;;;;6.47;100.00;100559.38;5053781;28;20025;-36
2023/03/26 02:20:28;;;;;;;17.02;4.15;;;;;;;6.53;100.00;100569.25;5054452;28;20032;-36
2023/03/26 02:22:54;;;;;;;19.80;4.15;;;;;;;6.47;100.00;100549.44;5054250;28;20040;-36
2023/03/26 02:25:20;;;;;;;20.35;5.22;;;;;;;6.51;100.00;100552.53;5053713;28;20385;-36
2023/03/26 02:27:48;;;;;;;17.30;4.22;;;;;;;6.52;100.00;100559.56;5054135;28;20468;-36
2023/03/26 02:30:24;;;;;;;19.92;4.50;;;;;;;6.48;100.00;100548.41;5054084;28;20032;-36
2023/03/26 02:32:52;;;;;;;23.95;4.60;;;;;;;6.48;100.00;100548.41;5053821;28;20021;-36
2023/03/26 02:35:18;;;;;;;20.70;4.13;;;;;;;6.45;100.00;100544.28;5053835;28;20025;-36
2023/03/26 02:37:45;;;;;;;17.45;4.35;;;;;;;6.43;100.00;100543.66;5053685;28;20021;-36
2023/03/26 02:40:11;;;;;;;17.58;4.80;;;;;;;6.40;100.00;100536.06;5053586;28;20025;-36
2023/03/26 02:42:38;;;;;;;26.15;4.45;;;;;;;6.48;100.00;100543.03;5053898;28;20021;-36
2023/03/26 02:45:04;;;;;;;;;;;;;;;6.51;100.00;100541.81;5054684;28;20049;-36
2023/03/26 02:47:30;;;;;;;21.83;5.20;;;;;;;6.42;100.00;100536.66;5053596;28;19915;-36
2023/03/26 02:49:55;;;;;;;;;;;;;;;6.50;100.00;100532.09;5054002;28;20035;-36
2023/03/26 02:52:20;;;;;;;19.10;3.97;;;;;;;6.41;100.00;100535.00;5053818;28;19908;-36
2023/03/26 02:54:46;;;;;;;12.53;4.00;;;;;;;6.46;100.00;100531.69;5053559;28;20116;-36
2023/03/26 02:57:11;;;;;;;20.73;4.60;;;;;;;6.41;100.00;100526.94;5053446;28;20060;-36
2023/03/26 02:59:37;;;;;;;20.17;4.83;;;;;;;6.41;100.00;100526.94;5053830;28;20373;-36
2023/03/26 03:02:02;;;;;;;21.25;4.40;;;;;;;6.39;100.00;100512.91;5053720;28;20102;-36
2023/03/26 03:04:28;;;;;;;19.10;3.97;;;;;;;6.36;100.00;100505.28;5053491;28;20390;-36
2023/03/26 03:06:56;;;;;;;16.60;4.13;;;;;;;6.36;100.00;100502.59;5053084;28;20025;-36
2023/03/26 03:09:22;;;;;;;20.70;4.55;;;;;;;6.38;100.00;100499.69;5053129;28;20021;-36
2023/03/26 03:11:47;;;;;;;17.90;3.85;;;;;;;6.34;100.00;100485.84;5053607;28;20072;-36
2023/03/26 03:14:13;;;;;;;17.17;4.57;;;;;;;6.41;100.00;100500.09;5053113;28;20108;-36
2023/03/26 03:16:38;;;;;;;21.20;4.50;;;;;;;6.37;100.00;100495.34;5053643;28;20025;-36
2023/03/26 03:19:05;;;;;;;18.30;4.13;;;;;;;6.39;100.00;100491.44;5053328;28;20040;-36
2023/03/26 03:21:30;;;;;;;14.32;3.85;;;;;;;6.41;100.00;100489.34;5053482;28;20112;-36
2023/03/26 03:23:56;;;;;;;17.92;4.40;;;;;;;6.40;100.00;100476.97;5053522;28;20467;-36
2023/03/26 03:26:26;;;;;;;15.35;4.10;;;;;;;6.47;100.00;100481.47;5053797;28;20040;-37
2023/03/26 03:28:52;;;;;;;22.15;5.57;;;;;;;6.48;100.00;100478.56;5053516;28;20021;-36
2023/03/26 03:31:17;;;;;;;;;;;;;;;6.56;100.00;100469.44;5054191;28;20370;-36
2023/03/26 03:33:45;;;;;;;15.25;3.85;;;;;;;6.48;100.00;100457.06;5053339;28;19915;-36
2023/03/26 03:36:12;;;;;;;16.20;4.05;;;;;;;6.54;100.00;100466.13;5053368;28;20029;-40
2023/03/26 03:38:39;;;;;;;21.13;4.68;;;;;;;6.56;100.00;100462.22;5053065;28;20460;-36
2023/03/26 03:41:05;;;;;;;16.63;3.88;;;;;;;6.57;100.00;100461.16;5052793;28;20029;-36
2023/03/26 03:43:31;;;;;;;;;;;;;;;6.64;100.00;100463.84;5053393;28;20052;-36
2023/03/26 03:45:57;;;;;;;19.23;3.70;;;;;;;6.60;100.00;100459.94;5053263;28;19912;-36
2023/03/26 03:48:22;;;;;;;18.42;3.50;;;;;;;6.61;100.00;100450.84;5055335;28;20507;-36
2023/03/26 03:50:47;;;;;;;14.80;2.93;;;;;;;6.63;100.00;100448.75;5057386;28;20032;-36
2023/03/26 03:53:14;;;;;;;14.90;4.57;;;;;;;6.50;100.00;100428.16;5056748;28;20032;-36
2023/03/26 03:55:41;;;;;;;17.58;4.10;;;;;;;6.64;100.00;100445.84;5057245;28;20083;-36
2023/03/26 03:58:07;;;;;;;16.48;4.18;;;;;;;6.67;100.00;100442.72;5056873;28;20028;-36
2023/03/26 04:00:33;;;;;;;16.80;4.28;;;;;;;6.68;100.00;100446.22;5056329;28;20033;-36
2023/03/26 04:03:05;;;;;;;15.93;4.00;;;;;;;6.71;100.00;100440.44;5057407;28;20036;-36
2023/03/26 04:05:31;;;;;;;14.93;3.78;;;;;;;6.70;100.00;100430.72;5056501;28;20029;-36
2023/03/26 04:07:58;;;;;;;13.20;3.60;;;;;;;6.72;100.00;100429.47;5056138;28;20473;-36
2023/03/26 04:10:24;;;;;;;13.13;3.40;;;;;;;6.71;100.00;100425.13;5056523;28;20025;-36
2023/03/26 04:12:50;;;;;;;15.32;3.38;;;;;;;6.73;100.00;100427.59;5056936;28;20075;-36
2023/03/26 04:15:15;;;;;;;16.67;4.03;;;;;;;6.71;100.00;100427.00;5056699;28;20473;-36
2023/03/26 04:17:41;;;;;;;15.77;4.05;;;;;;;6.79;100.00;100421.38;5056843;28;20407;-36
2023/03/26 04:20:09;;;;;;;14.40;3.40;;;;;;;6.71;100.00;100405.50;5056503;28;20025;-36
2023/03/26 04:22:35;;;;;;;13.63;3.67;;;;;;;6.82;100.00;100409.34;5056427;28;20111;-36
2023/03/26 04:25:01;;;;;;;;;;;;;;;6.88;100.00;100408.47;5056641;28;20035;-36
2023/03/26 04:27:30;;;;;;;11.23;3.00;;;;;;;6.79;100.00;100397.19;5056369;28;19908;-36
2023/03/26 04:29:59;;;;;;;12.45;2.88;;;;;;;6.85;100.00;100387.44;5055780;28;20469;-36
2023/03/26 04:32:28;;;;;;;13.23;3.17;;;;;;;6.79;100.00;100367.63;5056300;28;20215;-36
2023/03/26 04:34:54;;;;;;;10.07;2.65;;;;;;;6.86;100.00;100379.16;5055690;28;20029;-36
2023/03/26 04:37:38;;;;;;;10.98;2.97;;;;;;;6.77;100.00;100364.31;5055635;28;20525;-36
2023/03/26 04:40:07;;;;;;;14.60;3.25;;;;;;;6.83;100.00;100378.75;5055853;28;20116;-36
2023/03/26 04:42:32;;;;;;;12.45;3.00;;;;;;;6.82;100.00;100371.72;5055783;28;20033;-36
2023/03/26 04:44:58;;;;;;;10.17;2.87;;;;;;;6.80;100.00;100369.28;5056080;28;20029;-36
2023/03/26 04:47:24;;;;;;;12.00;2.92;;;;;;;6.78;100.00;100349.03;5055702;28;20090;-36
2023/03/26 04:49:49;;;;;;;9.52;2.70;;;;;;;6.81;100.00;100349.41;5056004;28;20037;-36
2023/03/26 04:52:15;;;;;;;12.40;3.13;;;;;;;6.79;100.00;100342.63;5056222;28;20506;-36
2023/03/26 04:54:43;;;;;;;9.95;2.92;;;;;;;6.87;100.00;100350.41;5056193;28;20025;-36
2023/03/26 04:57:25;;;;;;;15.55;4.00;;;;;;;6.89;100.00;100346.47;5055562;28;20039;-36
2023/03/26 04:59:50;;;;;;;8.70;2.53;;;;;;;6.87;100.00;100337.78;5055761;28;20096;-36
2023/03/26 05:02:16;;;;;;;9.97;3.37;;;;;;;6.90;100.00;100331.97;5055880;28;20049;-36
2023/03/26 05:04:44;;;;;;;10.43;2.75;;;;;;;6.78;100.00;100311.41;5056007;28;20044;-36
2023/03/26 05:07:15;;;;;;;10.55;3.13;;;;;;;6.90;100.00;100326.59;5055311;28;20033;-36
2023/03/26 05:09:40;;;;;;;9.88;2.78;;;;;;;6.88;100.00;100323.31;5055363;28;20031;-36
2023/03/26 05:12:06;;;;;;;13.83;3.50;;;;;;;6.91;100.00;100322.03;5055800;28;20033;-36
2023/03/26 05:14:31;;;;;;;12.30;4.10;;;;;;;6.87;100.00;100318.97;5055361;28;20619;-36
2023/03/26 05:16:56;;;;;;;10.77;2.80;;;;;;;6.81;100.00;100297.53;5055451;28;20032;-36
2023/03/26 05:19:22;;;;;;;12.63;3.63;;;;;;;6.83;100.00;100293.59;5055478;28;20025;-36
2023/03/26 05:21:47;;;;;;;9.87;2.70;;;;;;;6.91;100.00;100300.53;5054828;28;20477;-36
2023/03/26 05:24:12;;;;;;;9.73;2.50;;;;;;;6.87;100.00;100286.72;5055167;28;20031;-36
2023/03/26 05:26:38;;;;;;;11.83;3.37;;;;;;;6.88;100.00;100285.69;5055376;28;20029;-36
2023/03/26 05:29:03;;;;;;;11.53;3.40;;;;;;;6.96;100.00;100300.69;5054986;28;20381;-36
2023/03/26 05:31:32;;;;;;;9.32;2.90;;;;;;;6.93;100.00;100291.22;5054657;28;20480;-36
2023/03/26 05:34:01;;;;;;;12.73;3.20;;;;;;;6.91;100.00;100293.28;5054795;28;20055;-36
2023/03/26 05:36:29;;;;;;;15.25;3.72;;;;;;;6.89;100.00;100294.59;5055371;28;20043;-36
2023/03/26 05:38:54;;;;;;;10.32;3.13;;;;;;;6.93;100.00;100293.91;5054791;28;20025;-36
2023/03/26 05:41:20;;;;;;;15.50;3.70;;;;;;;6.86;100.00;100277.00;5054961;28;20108;-36
2023/03/26 05:43:46;;;;;;;19.43;4.50;;;;;;;6.88;100.00;100283.00;5054707;28;20056;-36
2023/03/26 05:46:12;;;;;;;7.63;2.78;;;;;;;6.88;100.00;100280.31;5055233;28;20414;-36
2023/03/26 05:48:38;;;;;;;10.13;2.92;;;;;;;6.82;100.00;100264.22;5054813;28;20032;-36
2023/03/26 05:51:04;;;;;;;11.30;2.88;;;;;;;6.89;100.00;100279.28;5054544;28;20535;-36
2023/03/26 05:53:29;;;;;;;7.35;2.50;;;;;;;6.84;100.00;100265.69;5054138;28;20461;-36
2023/03/26 05:55:58;;;;;;;9.05;2.65;;;;;;;6.88;100.00;100268.72;5053574;28;20025;-36
2023/03/26 05:58:28;;;;;;;10.15;2.35;;;;;;;6.91;100.00;100277.16;5054404;28;20076;-36
2023/03/26 06:01:04;;;;;;;10.13;2.75;;;;;;;6.93;100.00;100272.41;5055010;28;20056;-36
2023/03/26 06:03:31;;;;;;;10.82;2.83;;;;;;;6.95;100.00;100270.31;5054923;28;20028;-36
2023/03/26 06:05:56;;;;;;;10.68;3.17;;;;;;;6.86;100.00;100266.25;5055113;28;20032;-36
2023/03/26 06:08:22;;;;;;;12.30;2.78;;;;;;;6.93;100.00;100271.59;5054488;28;20089;-36
2023/03/26 06:10:49;;;;;;;11.27;3.22;;;;;;;6.91;100.00;100261.03;5054247;28;20036;-36
2023/03/26 06:13:16;;;;;;;12.40;2.80;;;;;;;6.96;100.00;100266.56;5054355;28;20033;-36
2023/03/26 06:15:41;;;;;;;10.88;2.92;;;;;;;6.90;100.00;100259.41;5054092;28;20032;-36
2023/03/26 06:18:07;;;;;;;11.23;2.72;;;;;;;6.87;100.00;100240.19;5053758;28;20025;-36
2023/03/26 06:20:33;;;;;;;10.93;2.92;;;;;;;6.94;100.00;100252.56;5054058;28;20029;-36
2023/03/26 06:22:58;;;;;;;10.60;2.80;;;;;;;6.94;100.00;100247.16;5054199;28;20033;-37
2023/03/26 06:25:23;;;;;;;11.70;3.97;;;;;;;6.91;100.00;100236.84;5054293;28;20032;-36
2023/03/26 06:27:49;;;;;;;9.60;3.20;;;;;;;7.01;100.00;100243.59;5053932;28;20025;-36
2023/03/26 06:30:14;;;;;;;9.57;3.08;;;;;;;7.00;100.00;100244.63;5053889;28;20475;-36
2023/03/26 06:32:40;;;;;;;14.38;3.45;;;;;;;7.01;100.00;100241.72;5054616;28;20040;-36
2023/03/26 06:35:09;;;;;;;11.83;3.07;;;;;;;6.99;100.00;100237.63;5053823;28;20496;-36
2023/03/26 06:37:35;;;;;;;11.90;3.45;;;;;;;7.03;100.00;100236.13;5054243;28;20029;-36
2023/03/26 06:40:00;;;;;;;11.00;3.13;;;;;;;7.00;100.00;100241.94;5053730;28;20036;-36
2023/03/26 06:42:25;;;;;;;13.73;3.67;;;;;;;7.01;100.00;100240.91;5053325;28;20041;-36
2023/03/26 06:44:51;;;;;;;14.60;3.70;;;;;;;7.01;100.00;100249.78;5054020;28;20029;-36
2023/03/26 06:47:16;;;;;;;12.63;3.03;;;;;;;7.03;100.00;100239.66;5053613;28;20496;-36
2023/03/26 06:49:41;;;;;;;11.77;3.13;;;;;;;7.04;100.00;100240.47;5053405;28;20539;-36
2023/03/26 06:52:07;;;;;;;11.70;3.03;;;;;;;7.03;100.00;100239.66;5053264;28;20025;-36
2023/03/26 06:54:32;;;;;;;12.50;3.23;;;;;;;6.89;100.00;100220.13;5053358;28;20032;-36
2023/03/26 06:56:58;;;;;;;13.17;3.43;;;;;;;6.96;100.00;100228.13;5052550;28;20082;-36
2023/03/26 06:59:24;;;;;;;;;;;;;;;7.04;100.00;100235.09;5054222;28;20021;-36
2023/03/26 07:01:49;;;;;;;12.05;3.35;;;;;;;6.91;100.00;100226.09;5053674;28;20290;-36
2023/03/26 07:04:15;;;;;;;8.90;3.08;;;;;;;6.97;100.00;100235.97;5053998;28;20082;-36
2023/03/26 07:06:40;;;;;;;11.83;3.60;;;;;;;7.02;100.00;100231.78;5053955;28;20117;-36
2023/03/26 07:09:05;;;;;;;11.87;3.30;;;;;;;7.03;100.00;100236.13;5053721;28;20718;-36
2023/03/26 07:11:31;;;;;;;11.50;3.50;;;;;;;7.05;100.00;100231.34;5053467;28;20087;-36
2023/03/26 07:13:58;;;;;;;6.40;2.80;;;;;;;7.08;100.00;100228.22;5053698;28;20021;-36
2023/03/26 07:16:23;;;;;;;9.07;3.10;;;;;;;6.99;100.00;100214.25;5053323;28;20029;-36
2023/03/26 07:18:49;;;;;;;11.40;3.00;;;;;;;7.04;100.00;100224.34;5053061;28;20029;-36
2023/03/26 07:21:15;;;;;;;9.15;2.95;;;;;;;7.01;100.00;100214.03;5053540;28;20470;-37
2023/03/26 07:23:41;;;;;;;9.80;2.80;;;;;;;7.07;100.00;100229.25;5056286;28;20350;-37
2023/03/26 07:26:25;;;;;;;10.15;2.90;;;;;;;7.05;100.00;100220.59;5057786;28;20108;-34
2023/03/26 07:29:28;;;;;;;14.90;3.47;;;;;;;7.10;100.00;100224.25;5058030;28;20029;-35
2023/03/26 07:32:10;;;;;;;11.00;2.88;;;;;;;7.10;100.00;100220.75;5057262;28;20037;-35
2023/03/26 07:34:51;;;;;;;12.98;3.35;;;;;;;7.04;100.00;100198.28;5056917;28;20021;-35
2023/03/26 07:37:22;;;;;;;8.65;3.13;;;;;;;7.08;100.00;100209.41;5057066;28;20381;-35
2023/03/26 07:39:57;;;;;;;11.30;3.38;;;;;;;7.01;100.00;100200.59;5057793;28;20029;-36
2023/03/26 07:42:49;;;;;;;11.50;3.33;;;;;;;7.10;100.00;100213.50;5057464;28;20116;-35
2023/03/26 07:45:28;;;;;;;10.57;3.80;;;;;;;7.07;100.00;100208.56;5056989;28;20055;-36
2023/03/26 07:47:55;;;;;;;11.82;3.85;;;;;;;7.08;100.00;100210.22;5057027;28;20462;-35
2023/03/26 07:50:23;;;;;;;13.50;3.65;;;;;;;7.07;100.00;100211.25;5057222;28;20098;-35
2023/03/26 07:52:49;;;;;;;8.43;3.08;;;;;;;7.01;100.00;100195.19;5056451;28;20056;-36
2023/03/26 07:55:15;;;;;;;6.97;2.72;;;;;;;7.09;100.00;100206.50;5057378;28;20415;-36
2023/03/26 07:57:53;;;;;;;8.98;3.40;;;;;;;7.04;100.00;100197.47;5057241;28;20438;-35
2023/03/26 08:00:23;;;;;;;9.68;3.83;;;;;;;7.06;100.00;100212.31;5056940;28;20025;-35
2023/03/26 08:03:37;;;;;;;10.23;3.70;;;;;;;7.11;100.00;100192.81;5057328;28;20049;-35
2023/03/26 08:06:13;;;;;;;11.68;3.90;;;;;;;7.05;100.00;100186.47;5052424;28;20037;-36
2023/03/26 08:08:51;;;;;;;10.65;3.72;;;;;;;7.12;100.00;100192.59;5056510;28;20036;-36
2023/03/26 08:11:43;;;;;;;13.40;4.43;;;;;;;7.05;100.00;100199.09;5057018;28;20033;-37
2023/03/26 08:14:16;;;;;;;9.95;3.50;;;;;;;7.00;100.00;100185.50;5056934;28;20039;-36
2023/03/26 08:16:49;;;;;;;9.70;3.15;;;;;;;7.05;100.00;100199.91;5056888;28;20029;-36
2023/03/26 08:19:33;;;;;;;11.55;2.90;;;;;;;7.13;100.00;100196.94;5056920;28;20036;-35
2023/03/26 08:22:33;;;;;;;7.95;2.80;;;;;;;7.08;100.00;100187.91;5056777;28;20021;-35
2023/03/26 08:25:10;;;;;;;8.45;3.15;;;;;;;7.15;100.00;100199.38;5056153;28;20025;-35
2023/03/26 08:27:46;;;;;;;7.38;3.22;;;;;;;7.11;100.00;100190.94;5056667;28;20036;-35
2023/03/26 08:30:26;;;;;;;8.35;3.00;;;;;;;7.12;100.00;100186.38;5055836;28;20362;-35
2023/03/26 08:32:58;;;;;;;8.63;3.45;;;;;;;7.06;100.00;100174.66;5055888;28;20056;-35
2023/03/26 08:35:25;;;;;;;10.63;3.95;;;;;;;7.18;100.00;100193.56;5056264;28;20035;-35
2023/03/26 08:37:51;;;;;;;26.20;4.45;;;;;;;7.08;100.00;100185.22;5056505;28;20040;-36
2023/03/26 08:40:39;;;;;;;;;;;;;;;7.25;100.00;100194.31;5055987;28;20029;-35
2023/03/26 08:43:20;;;;;;;8.50;3.38;;;;;;;7.23;100.00;100191.03;5054767;28;20003;-36
2023/03/26 08:46:07;;;;;;;8.57;3.38;;;;;;;7.25;100.00;100188.94;5056403;28;20053;-35
2023/03/26 08:48:32;;;;;;;11.45;3.80;;;;;;;7.26;100.00;100190.56;5055780;28;20108;-35
2023/03/26 08:51:19;;;;;;;11.47;3.27;;;;;;;7.30;100.00;100199.84;5056009;28;20122;-35
2023/03/26 08:53:53;;;;;;;;;;;;;;;7.38;100.00;100193.34;5056969;28;20353;-35
2023/03/26 08:56:50;;;;;;;9.48;3.25;;;;;;;7.27;100.00;100173.41;5055829;28;19920;-35
2023/03/26 08:59:34;;;;;;;10.57;4.73;;;;;;;7.27;100.00;100175.25;5055893;28;20037;-36
2023/03/26 09:02:25;;;;;;;10.23;4.05;;;;;;;7.34;100.00;100187.59;5055260;28;20295;-36
2023/03/26 09:05:12;;;;;;;7.15;3.33;;;;;;;7.35;100.00;100188.41;5056215;28;20036;-35
2023/03/26 09:08:01;;;;;;;10.63;3.92;;;;;;;7.27;100.00;100175.25;5055425;28;20422;-35
2023/03/26 09:10:27;;;;;;;8.32;3.60;;;;;;;7.37;100.00;100184.44;5055598;28;20119;-36
2023/03/26 09:13:25;;;;;;;8.00;3.10;;;;;;;7.39;100.00;100182.34;5055316;28;20075;-36
2023/03/26 09:16:23;;;;;;;10.43;3.55;;;;;;;7.25;100.00;100156.66;5054845;28;20436;-35
2023/03/26 09:18:52;;;;;;;7.95;3.35;;;;;;;7.42;100.00;100178.41;5055739;28;20489;-36
2023/03/26 09:21:29;;;;;;;7.22;2.95;;;;;;;7.45;100.00;100181.44;5055053;28;20466;-36
2023/03/26 09:24:29;;;;;;;8.95;3.30;;;;;;;7.48;100.00;100174.78;5055650;28;20053;-36
2023/03/26 09:27:18;;;;;;;9.32;3.28;;;;;;;7.48;100.00;100172.09;5055574;28;20108;-35
2023/03/26 09:30:16;;;;;;;6.45;2.40;;;;;;;7.47;100.00;100178.53;5055608;28;20037;-36
2023/03/26 09:33:14;;;;;;;4.55;2.30;;;;;;;7.55;100.00;100172.81;5054651;28;20029;-36
2023/03/26 09:35:54;;;;;;;;;;;;;;;7.63;100.00;100169.00;5056124;28;20021;-36
2023/03/26 09:38:43;;;;;;;6.55;2.55;;;;;;;7.66;100.00;100169.38;5054690;28;19912;-36
2023/03/26 09:41:15;;;;;;;8.18;2.83;;;;;;;7.70;100.00;100169.72;5055005;28;20382;-36
2023/03/26 09:44:06;;;;;;;9.07;2.95;;;;;;;7.78;100.00;100161.34;5055479;28;20028;-36
2023/03/26 09:47:02;;;;;;;6.65;2.67;;;;;;;7.85;100.00;100170.13;5053865;28;20040;-36
2023/03/26 09:49:48;;;;;;;8.45;3.17;;;;;;;7.71;100.00;100160.59;5054649;28;20033;-36
2023/03/26 09:52:26;;;;;;;8.20;2.58;;;;;;;7.85;100.00;100162.03;5054874;28;20132;-36
2023/03/26 09:55:22;;;;;;;10.48;3.38;;;;;;;7.90;100.00;100164.06;5055070;28;20063;-36
2023/03/26 09:58:09;;;;;;;6.88;2.40;;;;;;;7.91;100.00;100155.75;5054445;28;20021;-36
2023/03/26 10:01:07;;;;;;;6.28;2.72;;;;;;;7.96;100.00;100163.97;5053880;28;20021;-36
2023/03/26 10:03:47;;;;;;;7.55;2.55;;;;;;;7.95;100.00;100167.72;5055143;28;20032;-36
2023/03/26 10:06:25;;;;;;;4.80;2.25;;;;;;;7.94;100.00;100157.16;5054596;28;20078;-36
2023/03/26 10:09:35;;;;;;;5.57;2.22;;;;;;;8.05;100.00;100180.59;5054546;28;20025;-36
2023/03/26 10:12:37;;;;;;;4.97;1.65;;;;;;;8.10;100.00;100169.13;5031945;28;20040;-36
2023/03/26 10:15:49;;;;;;;3.28;1.50;;;;;;;8.06;100.00;100167.97;5032736;28;20037;-36
2023/03/26 10:18:47;;;;;;;4.38;1.70;;;;;;;7.99;100.00;100176.94;5047245;28;20036;-36
2023/03/26 10:21:27;;;;;;;5.93;1.60;;;;;;;7.99;100.00;100168.06;5054580;28;20354;-36
2023/03/26 10:24:18;;;;;;;4.75;1.75;;;;;;;8.07;100.00;100172.31;5054836;28;20032;-35
2023/03/26 10:27:06;;;;;;;4.65;1.70;;;;;;;8.01;100.00;100174.06;5053936;28;20028;-36
2023/03/26 10:29:59;;;;;;;6.45;1.73;;;;;;;8.08;100.00;100172.06;5053507;28;20063;-36
2023/03/26 10:32:48;;;;;;;5.00;1.75;;;;;;;8.03;100.00;100179.19;5054021;28;20033;-36
2023/03/26 10:35:22;;;;;;;3.15;1.30;;;;;;;8.00;100.00;100159.78;5043493;28;20041;-36
2023/03/26 10:38:06;;;;;;;3.95;1.40;;;;;;;8.03;100.00;100180.00;5053647;28;20035;-36
2023/03/26 10:40:41;;;;;;;4.47;1.83;;;;;;;7.89;100.00;100178.56;5053244;28;20036;-36
2023/03/26 10:43:23;;;;;;;4.05;1.52;;;;;;;7.73;100.00;100153.13;5053681;28;20064;-36
2023/03/26 10:46:08;;;;;;;5.75;1.50;;;;;;;7.97;100.00;100175.56;5054186;28;20025;-36
2023/03/26 10:48:50;;;;;;;5.13;1.88;;;;;;;7.97;100.00;100162.91;5053585;28;20437;-36
2023/03/26 10:51:42;;;;;;;4.50;1.50;;;;;;;8.11;100.00;100181.56;5054152;28;20041;-36
2023/03/26 10:54:38;;;;;;;2.45;1.38;;;;;;;8.12;100.00;100183.22;5053824;28;20484;-36
2023/03/26 10:57:16;;;;;;;4.35;1.90;;;;;;;8.08;100.00;100180.16;5053899;28;20024;-36
2023/03/26 10:59:41;;;;;;;5.47;1.98;;;;;;;8.06;100.00;100176.06;5053519;28;20061;-36
2023/03/26 11:02:25;;;;;;;6.57;1.90;;;;;;;8.17;100.00;100186.03;5052859;28;20092;-36
2023/03/26 11:05:40;;;;;;;4.55;2.00;;;;;;;8.09;100.00;100194.44;5054003;28;20436;-36
2023/03/26 11:08:15;;;;;;;5.70;2.05;;;;;;;8.12;100.00;100193.97;5053998;28;20423;-36
2023/03/26 11:10:54;;;;;;;4.88;1.70;;;;;;;8.16;100.00;100189.78;5053409;28;20029;-36
2023/03/26 11:13:37;;;;;;;4.93;2.47;;;;;;;8.12;100.00;100191.28;5053947;28;20033;-36
2023/03/26 11:16:17;;;;;;;5.72;1.90;;;;;;;8.04;100.00;100188.91;5053910;28;20028;-36
2023/03/26 11:18:52;;;;;;;4.28;2.00;;;;;;;7.94;100.00;100187.59;5053839;28;20457;-36
2023/03/26 11:21:25;;;;;;;3.28;1.40;;;;;;;7.91;100.00;100208.78;5053853;28;20029;-36
2023/03/26 11:24:02;;;;;;;2.55;1.30;;;;;;;7.86;100.00;100185.25;5052999;28;20036;-36
2023/03/26 11:26:47;;;;;;;3.35;1.20;;;;;;;7.92;100.00;100211.25;5053586;28;20083;-36
2023/03/26 11:29:50;;;;;;;4.13;1.30;;;;;;;7.89;100.00;100205.50;5053250;28;20116;-36
2023/03/26 11:32:32;;;;;;;3.72;1.67;;;;;;;7.89;100.00;100214.38;5053653;28;20485;-36
2023/03/26 11:35:09;;;;;;;4.43;1.90;;;;;;;7.88;100.00;100218.13;5053493;28;20029;-36
2023/03/26 11:37:42;;;;;;;3.03;1.42;;;;;;;7.86;100.00;100212.16;5053419;28;20473;-36
2023/03/26 11:40:20;;;;;;;4.63;2.20;;;;;;;7.89;100.00;100222.47;5053107;28;20033;-36
2023/03/26 11:42:46;;;;;;;4.57;1.60;;;;;;;7.89;100.00;100218.94;5053350;28;20068;-36
2023/03/26 11:45:17;;;;;;;3.15;1.38;;;;;;;7.86;100.00;100206.78;5053078;28;20090;-36
2023/03/26 11:47:58;;;;;;;3.33;1.67;;;;;;;7.89;100.00;100208.19;5053373;28;20048;-36
2023/03/26 11:50:31;;;;;;;2.60;1.70;;;;;;;7.85;100.00;100213.19;5053098;28;20025;-36